Wootton Bassett, United Kingdom
Current Conditions -  °F | °C
As of 3:03 PM on Saturday 25 Oct 2014 (Local Time) from EGVA Reporting Station
Broken Clouds Broken Clouds  
Wind Chill: 57°   Ceiling: 4500
Heat Index: 57°   Visibility: 6mi
Dew Point: 46°   Wind: 14mph
Humidity: 67%   Direction: 250°WSW
Pressure: 30.04"   Gusts: NA
Location:  51.54°N, 1.9°W
Report Text: EGVA 251403Z AUTO 25012KT 9999 BKN045 14/08 A3004 RMK AO2
Loading
Personal Weather Stations






























Interactive Weather Map
Tropical Storm Tracking
New forecast layout! Learn more

10-Day Weather Forecast

Advertisements
Track Severe Weather on mobile